sensor_id;sensor_type;location;lat;lon;timestamp;pressure;altitude;pressure_sealevel;temperature;humidity
55289;BME280;41154;45.394;5.734;2023-05-07T00:00:12;96896.38;;;14.47;100.00
55289;BME280;41154;45.394;5.734;2023-05-07T00:02:40;96894.47;;;14.47;100.00
55289;BME280;41154;45.394;5.734;2023-05-07T00:05:06;96900.22;;;14.30;100.00
55289;BME280;41154;45.394;5.734;2023-05-07T00:07:32;96897.00;;;14.28;100.00
55289;BME280;41154;45.394;5.734;2023-05-07T00:09:59;96903.47;;;14.32;100.00
55289;BME280;41154;45.394;5.734;2023-05-07T00:12:25;96907.00;;;14.28;100.00
55289;BME280;41154;45.394;5.734;2023-05-07T00:14:51;96913.22;;;14.23;100.00
55289;BME280;41154;45.394;5.734;2023-05-07T00:17:16;96922.84;;;14.39;100.00
55289;BME280;41154;45.394;5.734;2023-05-07T00:19:42;96926.63;;;14.44;100.00
55289;BME280;41154;45.394;5.734;2023-05-07T00:22:08;96920.31;;;14.69;100.00
55289;BME280;41154;45.394;5.734;2023-05-07T00:24:33;96922.97;;;14.79;100.00
55289;BME280;41154;45.394;5.734;2023-05-07T00:26:59;96930.66;;;15.01;100.00
55289;BME280;41154;45.394;5.734;2023-05-07T00:29:25;96935.63;;;14.84;100.00
55289;BME280;41154;45.394;5.734;2023-05-07T00:31:51;96938.34;;;14.79;100.00
55289;BME280;41154;45.394;5.734;2023-05-07T00:34:19;96935.91;;;14.82;100.00
55289;BME280;41154;45.394;5.734;2023-05-07T00:36:45;96932.84;;;14.99;100.00
55289;BME280;41154;45.394;5.734;2023-05-07T00:39:11;96937.16;;;15.00;100.00
55289;BME280;41154;45.394;5.734;2023-05-07T00:41:36;96928.56;;;14.93;100.00
55289;BME280;41154;45.394;5.734;2023-05-07T00:44:03;96934.44;;;15.00;100.00
55289;BME280;41154;45.394;5.734;2023-05-07T00:46:30;96926.31;;;15.05;100.00
55289;BME280;41154;45.394;5.734;2023-05-07T00:48:56;96922.69;;;15.20;100.00
55289;BME280;41154;45.394;5.734;2023-05-07T00:51:24;96934.56;;;15.24;100.00
55289;BME280;41154;45.394;5.734;2023-05-07T00:53:52;96928.91;;;15.21;100.00
55289;BME280;41154;45.394;5.734;2023-05-07T00:56:19;96920.09;;;15.05;100.00
55289;BME280;41154;45.394;5.734;2023-05-07T00:58:46;96920.94;;;15.00;100.00
55289;BME280;41154;45.394;5.734;2023-05-07T01:01:12;96911.97;;;15.10;100.00
55289;BME280;41154;45.394;5.734;2023-05-07T01:03:38;96909.56;;;15.08;100.00
55289;BME280;41154;45.394;5.734;2023-05-07T01:06:06;96913.72;;;14.90;100.00
55289;BME280;41154;45.394;5.734;2023-05-07T01:08:33;96918.97;;;14.71;100.00
55289;BME280;41154;45.394;5.734;2023-05-07T01:11:00;96922.84;;;15.00;100.00
55289;BME280;41154;45.394;5.734;2023-05-07T01:13:27;96924.25;;;14.92;100.00
55289;BME280;41154;45.394;5.734;2023-05-07T01:15:53;96929.97;;;14.80;100.00
55289;BME280;41154;45.394;5.734;2023-05-07T01:18:19;96932.94;;;14.79;100.00
55289;BME280;41154;45.394;5.734;2023-05-07T01:20:45;96938.06;;;14.80;100.00
55289;BME280;41154;45.394;5.734;2023-05-07T01:23:11;96937.78;;;14.82;100.00
55289;BME280;41154;45.394;5.734;2023-05-07T01:25:37;96929.50;;;14.73;100.00
55289;BME280;41154;45.394;5.734;2023-05-07T01:28:04;96931.66;;;14.71;100.00
55289;BME280;41154;45.394;5.734;2023-05-07T01:30:34;96923.25;;;15.17;100.00
55289;BME280;41154;45.394;5.734;2023-05-07T01:33:10;96925.03;;;14.98;100.00
55289;BME280;41154;45.394;5.734;2023-05-07T01:35:42;96929.25;;;14.69;100.00
55289;BME280;41154;45.394;5.734;2023-05-07T01:38:09;96927.31;;;14.75;100.00
55289;BME280;41154;45.394;5.734;2023-05-07T01:40:35;96922.22;;;14.68;100.00
55289;BME280;41154;45.394;5.734;2023-05-07T01:43:04;96922.81;;;14.60;100.00
55289;BME280;41154;45.394;5.734;2023-05-07T01:45:33;96930.06;;;14.60;100.00
55289;BME280;41154;45.394;5.734;2023-05-07T01:48:00;96922.22;;;14.58;100.00
55289;BME280;41154;45.394;5.734;2023-05-07T01:50:27;96933.03;;;14.58;100.00
55289;BME280;41154;45.394;5.734;2023-05-07T01:52:53;96929.88;;;14.41;100.00
55289;BME280;41154;45.394;5.734;2023-05-07T01:55:19;96928.78;;;14.36;100.00
55289;BME280;41154;45.394;5.734;2023-05-07T01:57:45;96934.19;;;14.36;100.00
55289;BME280;41154;45.394;5.734;2023-05-07T02:00:11;96933.09;;;14.48;100.00
55289;BME280;41154;45.394;5.734;2023-05-07T02:02:44;96926.63;;;14.44;100.00
55289;BME280;41154;45.394;5.734;2023-05-07T02:05:20;96938.06;;;14.20;100.00
55289;BME280;41154;45.394;5.734;2023-05-07T02:07:51;96934.28;;;14.11;100.00
55289;BME280;41154;45.394;5.734;2023-05-07T02:10:17;96923.78;;;13.99;100.00
55289;BME280;41154;45.394;5.734;2023-05-07T02:12:43;96924.38;;;13.91;100.00
55289;BME280;41154;45.394;5.734;2023-05-07T02:15:10;96916.56;;;13.84;100.00
55289;BME280;41154;45.394;5.734;2023-05-07T02:17:39;96916.00;;;13.82;100.00
55289;BME280;41154;45.394;5.734;2023-05-07T02:20:23;96920.38;;;13.47;100.00
55289;BME280;41154;45.394;5.734;2023-05-07T02:22:49;96931.72;;;13.39;100.00
55289;BME280;41154;45.394;5.734;2023-05-07T02:25:15;96923.06;;;13.52;100.00
55289;BME280;41154;45.394;5.734;2023-05-07T02:27:41;96926.31;;;13.59;100.00
55289;BME280;41154;45.394;5.734;2023-05-07T02:30:07;96926.84;;;13.61;100.00
55289;BME280;41154;45.394;5.734;2023-05-07T02:32:33;96930.09;;;13.48;100.00
55289;BME280;41154;45.394;5.734;2023-05-07T02:34:59;96930.91;;;13.33;100.00
55289;BME280;41154;45.394;5.734;2023-05-07T02:37:25;96936.00;;;13.29;100.00
55289;BME280;41154;45.394;5.734;2023-05-07T02:39:50;96930.88;;;13.07;100.00
55289;BME280;41154;45.394;5.734;2023-05-07T02:42:16;96932.19;;;13.00;100.00
55289;BME280;41154;45.394;5.734;2023-05-07T02:44:42;96934.09;;;13.04;100.00
55289;BME280;41154;45.394;5.734;2023-05-07T02:47:08;96933.56;;;13.07;100.00
55289;BME280;41154;45.394;5.734;2023-05-07T02:49:36;96944.88;;;13.35;100.00
55289;BME280;41154;45.394;5.734;2023-05-07T02:52:03;96937.03;;;13.13;100.00
55289;BME280;41154;45.394;5.734;2023-05-07T02:54:28;96943.16;;;12.77;100.00
55289;BME280;41154;45.394;5.734;2023-05-07T02:56:54;96946.47;;;12.95;100.00
55289;BME280;41154;45.394;5.734;2023-05-07T02:59:20;96938.66;;;13.19;100.00
55289;BME280;41154;45.394;5.734;2023-05-07T03:01:46;96945.91;;;12.88;100.00
55289;BME280;41154;45.394;5.734;2023-05-07T03:04:12;96940.47;;;12.67;100.00
55289;BME280;41154;45.394;5.734;2023-05-07T03:06:38;96934.50;;;12.60;100.00
55289;BME280;41154;45.394;5.734;2023-05-07T03:09:03;96926.44;;;12.55;100.00
55289;BME280;41154;45.394;5.734;2023-05-07T03:11:29;96925.63;;;12.54;100.00
55289;BME280;41154;45.394;5.734;2023-05-07T03:13:55;96927.22;;;12.55;100.00
55289;BME280;41154;45.394;5.734;2023-05-07T03:16:21;96924.75;;;12.38;100.00
55289;BME280;41154;45.394;5.734;2023-05-07T03:18:47;96922.31;;;12.32;100.00
55289;BME280;41154;45.394;5.734;2023-05-07T03:21:13;96915.31;;;12.31;100.00
55289;BME280;41154;45.394;5.734;2023-05-07T03:23:39;96904.81;;;12.29;100.00
55289;BME280;41154;45.394;5.734;2023-05-07T03:26:05;96905.13;;;12.43;100.00
55289;BME280;41154;45.394;5.734;2023-05-07T03:28:31;96912.13;;;12.44;100.00
55289;BME280;41154;45.394;5.734;2023-05-07T03:31:01;96906.22;;;12.42;100.00
55289;BME280;41154;45.394;5.734;2023-05-07T03:33:29;96911.56;;;12.37;100.00
55289;BME280;41154;45.394;5.734;2023-05-07T03:35:55;96918.34;;;12.50;100.00
55289;BME280;41154;45.394;5.734;2023-05-07T03:38:24;96918.78;;;12.26;100.00
55289;BME280;41154;45.394;5.734;2023-05-07T03:40:50;96914.78;;;12.34;100.00
55289;BME280;41154;45.394;5.734;2023-05-07T03:43:16;96919.28;;;12.13;100.00
55289;BME280;41154;45.394;5.734;2023-05-07T03:45:47;96919.06;;;11.82;100.00
55289;BME280;41154;45.394;5.734;2023-05-07T03:48:18;96918.47;;;11.75;100.00
55289;BME280;41154;45.394;5.734;2023-05-07T03:50:45;96921.16;;;11.75;100.00
55289;BME280;41154;45.394;5.734;2023-05-07T03:53:10;96927.13;;;11.77;100.00
55289;BME280;41154;45.394;5.734;2023-05-07T03:55:38;96917.69;;;11.74;100.00
55289;BME280;41154;45.394;5.734;2023-05-07T03:58:04;96916.94;;;11.84;100.00
55289;BME280;41154;45.394;5.734;2023-05-07T04:00:30;96920.44;;;11.84;100.00
55289;BME280;41154;45.394;5.734;2023-05-07T04:03:00;96921.78;;;11.87;100.00
55289;BME280;41154;45.394;5.734;2023-05-07T04:05:29;96915.84;;;11.80;100.00
55289;BME280;41154;45.394;5.734;2023-05-07T04:08:01;96922.22;;;11.68;100.00
55289;BME280;41154;45.394;5.734;2023-05-07T04:10:34;96923.47;;;11.56;100.00
55289;BME280;41154;45.394;5.734;2023-05-07T04:13:04;96923.47;;;11.56;100.00
55289;BME280;41154;45.394;5.734;2023-05-07T04:15:30;96930.88;;;11.38;100.00
55289;BME280;41154;45.394;5.734;2023-05-07T04:17:56;96929.34;;;11.47;100.00
55289;BME280;41154;45.394;5.734;2023-05-07T04:20:23;96936.63;;;11.52;100.00
55289;BME280;41154;45.394;5.734;2023-05-07T04:22:56;96930.97;;;11.48;100.00
55289;BME280;41154;45.394;5.734;2023-05-07T04:25:23;96942.41;;;11.39;100.00
55289;BME280;41154;45.394;5.734;2023-05-07T04:27:53;96939.06;;;11.59;100.00
55289;BME280;41154;45.394;5.734;2023-05-07T04:30:19;96931.88;;;11.64;100.00
55289;BME280;41154;45.394;5.734;2023-05-07T04:32:45;96933.22;;;11.67;100.00
55289;BME280;41154;45.394;5.734;2023-05-07T04:35:11;96931.16;;;11.79;100.00
55289;BME280;41154;45.394;5.734;2023-05-07T04:37:38;96937.00;;;11.66;100.00
55289;BME280;41154;45.394;5.734;2023-05-07T04:40:05;96934.34;;;11.76;100.00
55289;BME280;41154;45.394;5.734;2023-05-07T04:42:31;96932.53;;;11.87;100.00
55289;BME280;41154;45.394;5.734;2023-05-07T04:44:58;96930.72;;;11.93;100.00
55289;BME280;41154;45.394;5.734;2023-05-07T04:47:25;96929.56;;;11.83;100.00
55289;BME280;41154;45.394;5.734;2023-05-07T04:49:51;96932.28;;;11.88;100.00
55289;BME280;41154;45.394;5.734;2023-05-07T04:52:18;96931.34;;;12.10;100.00
55289;BME280;41154;45.394;5.734;2023-05-07T04:54:44;96923.09;;;12.27;100.00
55289;BME280;41154;45.394;5.734;2023-05-07T04:57:11;96920.66;;;12.20;100.00
55289;BME280;41154;45.394;5.734;2023-05-07T04:59:36;96928.94;;;12.09;100.00
55289;BME280;41154;45.394;5.734;2023-05-07T05:02:03;96927.53;;;12.01;100.00
55289;BME280;41154;45.394;5.734;2023-05-07T05:04:30;96929.84;;;12.30;100.00
55289;BME280;41154;45.394;5.734;2023-05-07T05:06:57;96939.50;;;12.31;100.00
55289;BME280;41154;45.394;5.734;2023-05-07T05:09:24;96953.56;;;12.43;100.00
55289;BME280;41154;45.394;5.734;2023-05-07T05:11:49;96955.09;;;12.23;100.00
55289;BME280;41154;45.394;5.734;2023-05-07T05:14:15;96953.22;;;12.24;100.00
55289;BME280;41154;45.394;5.734;2023-05-07T05:16:41;96962.13;;;12.35;100.00
55289;BME280;41154;45.394;5.734;2023-05-07T05:19:07;96958.78;;;12.81;100.00
55289;BME280;41154;45.394;5.734;2023-05-07T05:21:36;96959.69;;;13.12;100.00
55289;BME280;41154;45.394;5.734;2023-05-07T05:24:06;96970.13;;;12.88;100.00
55289;BME280;41154;45.394;5.734;2023-05-07T05:26:32;96973.13;;;12.97;100.00
55289;BME280;41154;45.394;5.734;2023-05-07T05:28:58;96978.00;;;13.20;100.00
55289;BME280;41154;45.394;5.734;2023-05-07T05:31:26;96971.06;;;13.45;100.00
55289;BME280;41154;45.394;5.734;2023-05-07T05:33:51;96974.78;;;13.70;100.00
55289;BME280;41154;45.394;5.734;2023-05-07T05:36:17;96978.31;;;13.44;100.00
55289;BME280;41154;45.394;5.734;2023-05-07T05:38:45;96975.34;;;13.46;100.00
55289;BME280;41154;45.394;5.734;2023-05-07T05:41:12;96976.16;;;13.46;100.00
55289;BME280;41154;45.394;5.734;2023-05-07T05:43:38;96975.06;;;13.63;100.00
55289;BME280;41154;45.394;5.734;2023-05-07T05:46:04;96971.56;;;13.93;100.00
55289;BME280;41154;45.394;5.734;2023-05-07T05:48:30;96977.09;;;14.43;100.00
55289;BME280;41154;45.394;5.734;2023-05-07T05:50:57;96982.25;;;15.00;100.00
55289;BME280;41154;45.394;5.734;2023-05-07T05:53:23;96980.41;;;15.35;100.00
55289;BME280;41154;45.394;5.734;2023-05-07T05:55:49;96979.50;;;16.13;100.00
55289;BME280;41154;45.394;5.734;2023-05-07T05:58:16;96988.69;;;16.17;100.00
55289;BME280;41154;45.394;5.734;2023-05-07T06:00:48;96985.25;;;15.38;100.00
55289;BME280;41154;45.394;5.734;2023-05-07T06:03:17;96986.56;;;16.09;100.00
55289;BME280;41154;45.394;5.734;2023-05-07T06:05:44;96994.00;;;18.04;100.00
55289;BME280;41154;45.394;5.734;2023-05-07T06:08:10;96996.06;;;19.10;100.00
55289;BME280;41154;45.394;5.734;2023-05-07T06:10:37;96988.41;;;18.98;100.00
55289;BME280;41154;45.394;5.734;2023-05-07T06:13:03;96997.97;;;19.46;99.66
55289;BME280;41154;45.394;5.734;2023-05-07T06:15:31;97006.13;;;18.54;100.00
55289;BME280;41154;45.394;5.734;2023-05-07T06:18:02;96995.47;;;18.85;100.00
55289;BME280;41154;45.394;5.734;2023-05-07T06:20:28;97004.75;;;19.93;93.66
55289;BME280;41154;45.394;5.734;2023-05-07T06:22:53;97006.13;;;19.09;99.12
55289;BME280;41154;45.394;5.734;2023-05-07T06:25:20;96997.28;;;19.03;100.00
55289;BME280;41154;45.394;5.734;2023-05-07T06:27:46;97013.47;;;19.82;100.00
55289;BME280;41154;45.394;5.734;2023-05-07T06:30:12;97011.94;;;20.52;94.72
55289;BME280;41154;45.394;5.734;2023-05-07T06:32:40;97005.91;;;21.92;85.03
55289;BME280;41154;45.394;5.734;2023-05-07T06:35:07;96998.44;;;22.27;83.02
55289;BME280;41154;45.394;5.734;2023-05-07T06:37:38;97000.41;;;22.18;80.73
55289;BME280;41154;45.394;5.734;2023-05-07T06:40:06;96992.28;;;24.25;71.21
55289;BME280;41154;45.394;5.734;2023-05-07T06:42:38;96979.03;;;26.55;61.37
55289;BME280;41154;45.394;5.734;2023-05-07T06:45:22;96988.00;;;26.36;62.58
55289;BME280;41154;45.394;5.734;2023-05-07T06:47:48;96991.44;;;24.70;63.98
55289;BME280;41154;45.394;5.734;2023-05-07T06:50:14;96997.72;;;24.71;68.37
55289;BME280;41154;45.394;5.734;2023-05-07T06:52:43;96990.31;;;24.71;69.08
55289;BME280;41154;45.394;5.734;2023-05-07T06:55:09;96992.91;;;21.88;76.57
55289;BME280;41154;45.394;5.734;2023-05-07T06:57:37;96996.59;;;21.23;79.88
55289;BME280;41154;45.394;5.734;2023-05-07T07:00:03;96991.00;;;21.63;78.55
55289;BME280;41154;45.394;5.734;2023-05-07T07:02:40;96981.16;;;22.83;73.80
55289;BME280;41154;45.394;5.734;2023-05-07T07:05:08;96980.16;;;22.66;73.43
55289;BME280;41154;45.394;5.734;2023-05-07T07:07:34;96977.94;;;22.59;74.64
55289;BME280;41154;45.394;5.734;2023-05-07T07:10:01;96979.19;;;23.43;71.50
55289;BME280;41154;45.394;5.734;2023-05-07T07:12:28;96979.25;;;23.13;73.18
55289;BME280;41154;45.394;5.734;2023-05-07T07:14:55;96980.81;;;23.44;78.79
55289;BME280;41154;45.394;5.734;2023-05-07T07:17:22;96980.66;;;22.59;78.15
55289;BME280;41154;45.394;5.734;2023-05-07T07:19:48;96975.41;;;21.19;82.73
55289;BME280;41154;45.394;5.734;2023-05-07T07:22:13;96980.28;;;20.34;86.43
55289;BME280;41154;45.394;5.734;2023-05-07T07:24:40;96982.81;;;20.30;89.29
55289;BME280;41154;45.394;5.734;2023-05-07T07:27:08;96987.97;;;20.00;90.46
55289;BME280;41154;45.394;5.734;2023-05-07T07:29:34;96987.38;;;19.81;91.68
55289;BME280;41154;45.394;5.734;2023-05-07T07:32:00;96985.50;;;19.67;94.91
55289;BME280;41154;45.394;5.734;2023-05-07T07:34:27;96981.19;;;19.52;96.48
55289;BME280;41154;45.394;5.734;2023-05-07T07:36:52;96986.94;;;19.28;94.16
55289;BME280;41154;45.394;5.734;2023-05-07T07:39:19;96986.72;;;18.88;97.97
55289;BME280;41154;45.394;5.734;2023-05-07T07:41:47;96987.41;;;18.80;100.00
55289;BME280;41154;45.394;5.734;2023-05-07T07:44:14;96987.13;;;19.32;100.00
55289;BME280;41154;45.394;5.734;2023-05-07T07:46:40;96995.13;;;19.14;100.00
55289;BME280;41154;45.394;5.734;2023-05-07T07:49:06;96992.16;;;19.38;100.00
55289;BME280;41154;45.394;5.734;2023-05-07T07:51:33;96993.97;;;19.66;100.00
55289;BME280;41154;45.394;5.734;2023-05-07T07:54:00;96997.03;;;19.28;100.00
55289;BME280;41154;45.394;5.734;2023-05-07T07:56:28;96992.16;;;19.38;99.64
55289;BME280;41154;45.394;5.734;2023-05-07T07:58:54;97006.69;;;19.56;100.00
55289;BME280;41154;45.394;5.734;2023-05-07T08:01:20;97008.72;;;19.87;99.30
55289;BME280;41154;45.394;5.734;2023-05-07T08:03:46;97005.38;;;19.31;97.26
55289;BME280;41154;45.394;5.734;2023-05-07T08:06:12;97002.69;;;19.17;96.93
55289;BME280;41154;45.394;5.734;2023-05-07T08:08:39;97004.91;;;19.15;97.62
55289;BME280;41154;45.394;5.734;2023-05-07T08:11:05;97004.03;;;19.65;96.07
55289;BME280;41154;45.394;5.734;2023-05-07T08:13:34;97017.81;;;19.83;96.39
55289;BME280;41154;45.394;5.734;2023-05-07T08:16:00;97021.75;;;19.77;97.87
55289;BME280;41154;45.394;5.734;2023-05-07T08:18:26;97025.47;;;20.35;96.54
55289;BME280;41154;45.394;5.734;2023-05-07T08:20:54;97021.81;;;19.26;100.00
55289;BME280;41154;45.394;5.734;2023-05-07T08:23:23;97016.69;;;19.11;99.06
55289;BME280;41154;45.394;5.734;2023-05-07T08:25:49;97020.28;;;19.56;97.25
55289;BME280;41154;45.394;5.734;2023-05-07T08:28:17;97018.88;;;19.59;97.69
55289;BME280;41154;45.394;5.734;2023-05-07T08:30:43;97010.19;;;19.57;94.43
55289;BME280;41154;45.394;5.734;2023-05-07T08:33:09;97015.81;;;19.97;94.51
55289;BME280;41154;45.394;5.734;2023-05-07T08:35:35;97013.69;;;19.71;98.22
55289;BME280;41154;45.394;5.734;2023-05-07T08:38:02;97016.41;;;19.71;95.99
55289;BME280;41154;45.394;5.734;2023-05-07T08:40:28;97016.03;;;20.09;92.17
55289;BME280;41154;45.394;5.734;2023-05-07T08:42:56;97017.91;;;20.00;99.93
55289;BME280;41154;45.394;5.734;2023-05-07T08:45:24;97012.22;;;19.65;100.00
55289;BME280;41154;45.394;5.734;2023-05-07T08:47:54;97014.38;;;19.54;97.71
55289;BME280;41154;45.394;5.734;2023-05-07T08:50:24;97023.03;;;19.20;99.62
55289;BME280;41154;45.394;5.734;2023-05-07T08:52:51;97020.59;;;19.32;99.11
55289;BME280;41154;45.394;5.734;2023-05-07T08:55:18;97018.38;;;19.57;94.43
55289;BME280;41154;45.394;5.734;2023-05-07T08:57:46;97030.25;;;19.98;97.29
55289;BME280;41154;45.394;5.734;2023-05-07T09:00:14;97033.81;;;20.07;100.00
55289;BME280;41154;45.394;5.734;2023-05-07T09:02:41;97028.72;;;20.68;100.00
55289;BME280;41154;45.394;5.734;2023-05-07T09:05:08;97037.09;;;20.80;93.01
55289;BME280;41154;45.394;5.734;2023-05-07T09:07:35;97035.66;;;20.52;88.32
55289;BME280;41154;45.394;5.734;2023-05-07T09:10:03;97035.25;;;20.04;96.38
55289;BME280;41154;45.394;5.734;2023-05-07T09:12:31;97041.63;;;19.63;100.00
55289;BME280;41154;45.394;5.734;2023-05-07T09:14:58;97037.25;;;19.90;100.00
55289;BME280;41154;45.394;5.734;2023-05-07T09:17:25;97039.16;;;19.75;100.00
55289;BME280;41154;45.394;5.734;2023-05-07T09:19:52;97038.53;;;19.56;100.00
55289;BME280;41154;45.394;5.734;2023-05-07T09:22:19;97043.56;;;18.71;100.00
55289;BME280;41154;45.394;5.734;2023-05-07T09:25:06;97045.06;;;18.49;100.00
55289;BME280;41154;45.394;5.734;2023-05-07T09:27:32;97045.25;;;18.25;100.00
55289;BME280;41154;45.394;5.734;2023-05-07T09:29:58;97054.22;;;18.53;100.00
55289;BME280;41154;45.394;5.734;2023-05-07T09:32:25;97056.41;;;18.23;100.00
55289;BME280;41154;45.394;5.734;2023-05-07T09:34:53;97065.22;;;18.15;100.00
55289;BME280;41154;45.394;5.734;2023-05-07T09:37:25;97063.88;;;17.99;100.00
55289;BME280;41154;45.394;5.734;2023-05-07T09:39:51;97077.88;;;18.20;100.00
55289;BME280;41154;45.394;5.734;2023-05-07T09:42:24;97078.31;;;17.94;100.00
55289;BME280;41154;45.394;5.734;2023-05-07T09:44:53;97076.91;;;17.77;100.00
55289;BME280;41154;45.394;5.734;2023-05-07T09:47:24;97087.59;;;17.50;100.00
55289;BME280;41154;45.394;5.734;2023-05-07T09:49:56;97085.84;;;17.21;100.00
55289;BME280;41154;45.394;5.734;2023-05-07T09:52:23;97087.75;;;17.39;100.00
55289;BME280;41154;45.394;5.734;2023-05-07T09:54:53;97099.84;;;17.28;100.00
55289;BME280;41154;45.394;5.734;2023-05-07T09:57:23;97100.81;;;17.37;100.00
55289;BME280;41154;45.394;5.734;2023-05-07T09:59:56;97101.31;;;16.96;100.00
55289;BME280;41154;45.394;5.734;2023-05-07T10:02:27;97100.44;;;16.77;100.00
55289;BME280;41154;45.394;5.734;2023-05-07T10:04:56;97105.22;;;16.85;100.00
55289;BME280;41154;45.394;5.734;2023-05-07T10:07:27;97101.88;;;16.93;100.00
55289;BME280;41154;45.394;5.734;2023-05-07T10:09:57;97107.53;;;16.97;100.00
55289;BME280;41154;45.394;5.734;2023-05-07T10:12:31;97112.06;;;17.01;100.00
55289;BME280;41154;45.394;5.734;2023-05-07T10:15:08;97115.34;;;16.74;100.00
55289;BME280;41154;45.394;5.734;2023-05-07T10:17:38;97117.63;;;16.62;100.00
55289;BME280;41154;45.394;5.734;2023-05-07T10:20:05;97119.69;;;16.75;100.00
55289;BME280;41154;45.394;5.734;2023-05-07T10:22:38;97120.97;;;16.78;100.00
55289;BME280;41154;45.394;5.734;2023-05-07T10:25:28;97130.47;;;16.51;100.00
55289;BME280;41154;45.394;5.734;2023-05-07T10:27:57;97130.38;;;15.92;100.00
55289;BME280;41154;45.394;5.734;2023-05-07T10:31:23;97140.06;;;16.04;100.00
55289;BME280;41154;45.394;5.734;2023-05-07T10:33:26;97136.97;;;15.81;100.00
55289;BME280;41154;45.394;5.734;2023-05-07T10:36:00;97133.97;;;15.82;100.00
55289;BME280;41154;45.394;5.734;2023-05-07T10:38:28;97139.44;;;15.67;100.00
55289;BME280;41154;45.394;5.734;2023-05-07T10:40:59;97138.97;;;15.55;100.00
55289;BME280;41154;45.394;5.734;2023-05-07T10:43:24;97141.16;;;15.53;100.00
55289;BME280;41154;45.394;5.734;2023-05-07T10:46:16;97139.63;;;15.31;100.00
55289;BME280;41154;45.394;5.734;2023-05-07T10:51:41;97149.22;;;15.58;100.00
55289;BME280;41154;45.394;5.734;2023-05-07T10:54:18;97152.28;;;15.46;100.00
55289;BME280;41154;45.394;5.734;2023-05-07T10:56:53;97155.25;;;15.44;100.00
55289;BME280;41154;45.394;5.734;2023-05-07T10:59:31;97150.06;;;15.58;100.00
55289;BME280;41154;45.394;5.734;2023-05-07T11:02:03;97157.56;;;15.67;100.00
55289;BME280;41154;45.394;5.734;2023-05-07T11:05:19;97152.94;;;15.77;100.00
55289;BME280;41154;45.394;5.734;2023-05-07T11:07:56;97152.31;;;15.91;100.00
55289;BME280;41154;45.394;5.734;2023-05-07T11:13:55;97152.38;;;15.80;100.00
55289;BME280;41154;45.394;5.734;2023-05-07T11:16:34;97145.53;;;15.93;100.00
55289;BME280;41154;45.394;5.734;2023-05-07T11:19:14;97145.59;;;15.83;100.00
55289;BME280;41154;45.394;5.734;2023-05-07T11:21:45;97160.50;;;15.80;100.00
55289;BME280;41154;45.394;5.734;2023-05-07T11:24:22;97159.75;;;16.09;100.00
55289;BME280;41154;45.394;5.734;2023-05-07T11:26:53;97164.09;;;16.10;100.00
55289;BME280;41154;45.394;5.734;2023-05-07T11:29:21;97166.34;;;15.98;100.00
55289;BME280;41154;45.394;5.734;2023-05-07T11:31:53;97161.34;;;16.15;100.00
55289;BME280;41154;45.394;5.734;2023-05-07T11:34:22;97164.75;;;15.92;100.00
55289;BME280;41154;45.394;5.734;2023-05-07T11:36:49;97167.91;;;16.04;100.00
55289;BME280;41154;45.394;5.734;2023-05-07T11:39:31;97164.03;;;16.21;100.00
55289;BME280;41154;45.394;5.734;2023-05-07T11:41:59;97172.91;;;16.26;100.00
55289;BME280;41154;45.394;5.734;2023-05-07T11:44:25;97167.28;;;16.17;100.00
55289;BME280;41154;45.394;5.734;2023-05-07T11:46:51;97169.94;;;16.23;100.00
55289;BME280;41154;45.394;5.734;2023-05-07T11:49:17;97169.78;;;16.09;100.00
55289;BME280;41154;45.394;5.734;2023-05-07T11:51:43;97161.44;;;16.05;100.00
55289;BME280;41154;45.394;5.734;2023-05-07T11:54:09;97161.63;;;16.14;100.00
55289;BME280;41154;45.394;5.734;2023-05-07T11:56:37;97170.09;;;16.02;100.00
55289;BME280;41154;45.394;5.734;2023-05-07T11:59:02;97168.44;;;16.06;100.00
55289;BME280;41154;45.394;5.734;2023-05-07T12:01:28;97156.53;;;16.07;100.00
55289;BME280;41154;45.394;5.734;2023-05-07T12:03:54;97164.78;;;15.87;100.00
55289;BME280;41154;45.394;5.734;2023-05-07T12:06:20;97156.97;;;15.85;100.00
55289;BME280;41154;45.394;5.734;2023-05-07T12:08:46;97165.94;;;16.15;100.00
55289;BME280;41154;45.394;5.734;2023-05-07T12:11:25;97163.56;;;16.08;100.00
55289;BME280;41154;45.394;5.734;2023-05-07T12:13:51;97174.16;;;15.99;100.00
55289;BME280;41154;45.394;5.734;2023-05-07T12:16:17;97180.50;;;15.74;100.00
55289;BME280;41154;45.394;5.734;2023-05-07T12:18:45;97177.00;;;15.74;100.00
55289;BME280;41154;45.394;5.734;2023-05-07T12:21:11;97165.09;;;15.75;100.00
55289;BME280;41154;45.394;5.734;2023-05-07T12:23:38;97182.00;;;16.01;100.00
55289;BME280;41154;45.394;5.734;2023-05-07T12:26:04;97178.19;;;16.07;100.00
55289;BME280;41154;45.394;5.734;2023-05-07T12:28:31;97178.03;;;15.83;100.00
55289;BME280;41154;45.394;5.734;2023-05-07T12:31:01;97180.19;;;15.91;100.00
55289;BME280;41154;45.394;5.734;2023-05-07T12:33:27;97184.06;;;15.70;100.00
55289;BME280;41154;45.394;5.734;2023-05-07T12:35:55;97183.53;;;15.62;100.00
55289;BME280;41154;45.394;5.734;2023-05-07T12:38:22;97179.31;;;15.46;100.00
55289;BME280;41154;45.394;5.734;2023-05-07T12:40:50;97178.44;;;15.56;100.00
55289;BME280;41154;45.394;5.734;2023-05-07T12:45:47;97178.66;;;15.70;100.00
55289;BME280;41154;45.394;5.734;2023-05-07T12:48:13;97180.59;;;15.59;100.00
55289;BME280;41154;45.394;5.734;2023-05-07T12:50:39;97181.66;;;15.58;100.00
55289;BME280;41154;45.394;5.734;2023-05-07T12:53:07;97178.53;;;15.35;100.00
55289;BME280;41154;45.394;5.734;2023-05-07T12:55:50;97188.25;;;15.41;100.00
55289;BME280;41154;45.394;5.734;2023-05-07T12:58:24;97189.66;;;15.23;100.00
55289;BME280;41154;45.394;5.734;2023-05-07T13:00:51;97182.31;;;15.34;100.00
55289;BME280;41154;45.394;5.734;2023-05-07T13:03:28;97187.41;;;15.46;100.00
55289;BME280;41154;45.394;5.734;2023-05-07T13:05:57;97186.06;;;15.43;100.00